Impacts TAF Board INFO
IDs:

KCLT - Charlotte/Douglas In, NC, US

Issued at 1140 UTC 11 Dec 2016
Updated at 1153 UTC 11 Dec 2016
Potential Impact None Slight Moderate High
Time1052Z 11/12Z 11/13Z 11/14Z 11/15Z 11/16Z 11/17Z 11/18Z 11/19Z 11/20Z 11/21Z 11/22Z 11/23Z 12/00Z
Type OBS PRVL PRVL PRVL PRVL PRVL PRVL PRVL PRVL PRVL PRVL PRVL PRVL PRVL
VIS 10 >6 >6 >6 >6 >6 >6 >6 >6 >6 >6 >6 >6 >6
CIG -- -- -- -- -- 45 45 45 30 30 30 30 30 15
Cover CLR SKC SKC SKC SKC BKN BKN BKN OVC OVC OVC OVC OVC OVC
FltCat VFR VFR VFR VFR VFR VFR VFR VFR MVFR MVFR MVFR MVFR MVFR MVFR
WX -- -- -- -- -- -- -- -- -- -- -- -- -- -DZ
WDir VRB VRB VRB VRB VRB 130 130 130 130 130 130 130 130 70
WSpd 0 2 2 2 2 5 5 5 4 4 4 4 4 3
WGst -- -- -- -- -- -- -- -- -- -- -- -- -- --

Raw TAF
KCLT 111140Z 1112/1212 VRB02KT P6SM SKC
  FM111600 13005KT P6SM BKN045
  FM111900 13004KT P6SM OVC030
  FM120000 07003KT P6SM -DZ OVC015
  FM120900 20004KT 5SM -DZ BR OVC008 WS020/23040KT


Raw METAR
KCLT 111052Z 00000KT 10SM CLR M04/M08 A3045 RMK AO2 SLP316 T10441078
KCLT 110952Z 00000KT 10SM CLR M04/M07 A3046 RMK AO2 SLP320 T10391072
KCLT 110852Z 00000KT 10SM CLR M03/M07 A3046 RMK AO2 SLP320 T10281067 58003

METAR Board
Radar Display
Forecast Discussion